x

Mid Gulf - 180 Nm South Of Southwest Pass, La (42001) Wave Buoy

9:50am - Thu 23rd Mar 2017 All times are UTC.

  • Sig Wave height 1.3ft
  • Swell Direction
  • Peak Period 5s
  • Average Period 4s
  • Wind
    2mph, 4mph gusts
  • Sea Temp 76°f
  • Air Temp 72°f
  • Sea Pressure 1020.5mb

More Historic Weather Station data

Upgrade to MSW Pro to gain access to the past 30 days of data for over 8000 Wavebouys and Weather Stations around the globe.

Join Pro

Comparision Forecast

View Surf forecast
   
Thu 03/23 9:50am 1.3ft 5s 4s 2 4 mph 1020.5mb 76f 72f
8:50am 1.3ft 4s 4s 4 7 mph 1020.4mb 76f 72f
7:50am 1.3ft 5s  -  7 9 mph 1020.5mb 76f 73f
6:50am 1.3ft 3s 4s 7 9 mph 1020.8mb 76f 73f
5:50am 1.3ft 4s 4s 9 13 mph 1021.1mb 76f 73f
4:50am 1.3ft 3s 4s 9 11 mph 1021.5mb 76f 73f
3:50am 1.3ft 5s 4s 7 9 mph 1022.1mb 76f 73f
2:50am 1.3ft 3s 4s 7 9 mph 1021.9mb 76f 74f
1:50am 1.3ft 3s 4s 9 11 mph 1021.5mb 76f 74f
12:50am 1.3ft 3s 4s 9 11 mph 1020.8mb 76f 74f
Wed 03/22 11:50pm 1.3ft 6s 4s 9 11 mph 1020.5mb 76f 74f
10:50pm 1.3ft 6s 4s 9 11 mph 1020.3mb 76f 74f
9:50pm 1.3ft 6s 4s 9 11 mph 1020.2mb 76f 74f
8:50pm 1.3ft 6s 5s 11 13 mph 1020.3mb 77f 74f
7:50pm 1.3ft 6s 5s 9 11 mph 1020.8mb 77f 74f
6:50pm 1.3ft 6s 5s 7 9 mph 1021.2mb 77f 74f
5:50pm 1.3ft 6s 5s 4 7 mph 1021.9mb 78f 74f
4:50pm 1.3ft 6s 5s 2 4 mph 1022.1mb 77f 74f
3:50pm 1.3ft 6s 5s 2 4 mph 1021.7mb 77f 73f
2:50pm 1.3ft 6s 5s 2 4 mph 1021.4mb 76f 74f
1:50pm 1.3ft 6s 5s  -  2 mph 1021.2mb 76f 74f
12:50pm 1.3ft 6s 5s 2 4 mph 1020.7mb 76f 73f
11:50am 1.3ft 6s 5s  -  2 mph 1020.1mb 76f 72f
10:50am 1.3ft 6s 5s 2
mph
1019.6mb 76f 72f
9:50am 1.3ft 8s 5s 2 4 mph 1019.3mb 76f 72f
8:50am 1.3ft 8s 5s 4 7 mph 1019.6mb 76f 73f
7:50am 1.3ft 6s 5s 2 4 mph 1020.3mb 76f 73f
6:50am 1ft 6s 5s 4 7 mph 1020.7mb 76f 73f
5:50am 1ft 6s 5s 4 7 mph 1020.8mb 76f 73f
4:50am 1ft 6s 4s 7
mph
1021.1mb 76f 74f
3:50am 1ft 6s 4s 9
mph
1021.1mb 76f 74f
2:50am 1ft 6s 4s 9 11 mph 1021mb 76f 74f
1:50am 1ft 6s 4s 7 9 mph 1020.8mb 76f 74f
12:50am 1ft 6s 4s 4 7 mph 1020.5mb 77f 74f
Tue 03/21 11:50pm 1ft 6s 4s 4 7 mph 1020.3mb 77f 75f
10:50pm 1ft 4s 4s 4 7 mph 1020.1mb 77f 75f
9:50pm 1ft 4s 4s 7 9 mph 1020mb 77f 75f
8:50pm 1.3ft 6s 4s 7 9 mph 1020.6mb 77f 74f
7:50pm 1.3ft 5s 4s 7 9 mph 1021.2mb 77f 74f
6:50pm 1ft 5s 4s 7 9 mph 1022mb 78f 74f
5:50pm 1.3ft 4s 4s 4 7 mph 1022.9mb 77f 74f
4:50pm 1.3ft 5s 4s 7
mph
1023.2mb 77f 74f
3:50pm 1.3ft 5s 4s 4 7 mph 1023.1mb 76f 74f
2:50pm 1.3ft 5s 4s 4
mph
1023mb 76f 74f
1:50pm 1.3ft 5s 4s 4
mph
1022.5mb 76f 74f
12:50pm 1.3ft 5s 4s 4 7 mph 1021.9mb 76f 73f
11:50am 1.3ft 5s 4s 2 4 mph 1021.4mb 76f 72f
10:50am 1.3ft 5s 4s 2 4 mph 1020.9mb 76f 72f
9:50am 1.3ft 5s 4s 2 4 mph 1020.6mb 76f 72f
8:50am 1.3ft 5s 4s 2 4 mph 1020.8mb 76f 72f
7:50am 1.3ft 5s 4s 2 4 mph 1021.3mb 76f 73f
6:50am 1.3ft 5s 4s 4 7 mph 1021.5mb 76f 73f
5:50am 1.3ft 4s 4s 4
mph
1021.8mb 76f 73f
4:50am 1.3ft 5s 4s 7 9 mph 1022.2mb 76f 73f
3:50am 1.3ft 5s 4s 9 11 mph 1022.6mb 76f 73f
2:50am 1.3ft 5s 4s 7 9 mph 1022.8mb 76f 73f
1:50am 1.3ft 5s 4s 9 11 mph 1022.6mb 76f 73f
12:50am 1.3ft 5s 4s 9 11 mph 1022.2mb 76f 73f
Mon 03/20 11:50pm 1.3ft 5s 4s 7 9 mph 1022.3mb 76f 74f
10:50pm 1.3ft 6s 4s 7 9 mph 1022.3mb 76f 74f
9:50pm 1.3ft 6s 4s 7 9 mph 1022.2mb 76f 74f
8:50pm 1.3ft 4s 4s 7 11 mph 1022.4mb 76f 73f
7:50pm 1.3ft 5s 4s 7 9 mph 1022.9mb 76f 73f
6:50pm 1.3ft 4s 4s 7 9 mph 1023.5mb 76f 73f
5:50pm 1.3ft 4s 4s 4 7 mph 1024.2mb 76f 73f
4:50pm 1.3ft 4s 4s 4 9 mph 1024.3mb 76f 73f
3:50pm 1.3ft 4s 4s 7
mph
1024.2mb 76f 73f
2:50pm 1.3ft 4s 4s 4 7 mph 1024mb 75f 73f
1:50pm 1.3ft 4s 4s 4 7 mph 1023.7mb 75f 73f
12:50pm 1.3ft 4s 4s 4 7 mph 1023.2mb 75f 73f
11:50am 1.6ft 8s 5s 4 9 mph 1022.8mb 75f 72f
10:50am 1.6ft 5s 5s 4 7 mph 1022.5mb 75f 72f
9:50am 1.6ft 5s 4s 4 7 mph 1022.3mb 75f 72f
8:50am 2ft 5s 5s 7
mph
1022.6mb 75f 72f
7:50am 2ft 5s 4s 7 9 mph 1023.1mb 75f 72f
6:50am 2ft 4s 4s 7 9 mph 1023.6mb 75f 73f
5:50am 2.5ft 4s 4s 7 9 mph 1024mb 75f 73f
4:50am 2.5ft 4s 4s 9 11 mph 1024.4mb 75f 73f
3:50am 2.5ft 4s 4s 11 16 mph 1024.5mb 75f 73f
2:50am 2.5ft 4s 4s 11 13 mph 1024.5mb 75f 73f
1:50am 2.5ft 4s 4s 11 16 mph 1024mb 75f 73f
12:50am 2ft 4s 4s 11 13 mph 1023.6mb 75f 73f
Sun 03/19 11:50pm 2ft 7s 4s 13 16 mph 1023.6mb 75f 73f
10:50pm 2ft 7s 4s 13 16 mph 1023.6mb 75f 74f
9:50pm 2ft 7s 4s 11 13 mph 1023.6mb 76f 73f
8:50pm 2ft 6s 4s 9 11 mph 1023.9mb 75f 73f
7:50pm 2ft 8s 4s 11 13 mph 1024.5mb 75f 73f
6:50pm 2ft 7s 4s 11 13 mph 1025.2mb 76f 73f
5:50pm 2ft 7s 4s 11 13 mph 1026mb 76f 73f
4:50pm 2ft 6s 5s 11 16 mph 1026.6mb 75f 73f
3:50pm 2ft 6s 5s 11 13 mph 1026.6mb 75f 72f
2:50pm 2ft 6s 5s 11 13 mph 1026.2mb 75f 72f
1:50pm 2ft 8s 5s 9 13 mph 1025.8mb 75f 72f
12:50pm 2ft 6s 5s 9 11 mph 1025.2mb 75f 71f
11:50am 2ft 7s 5s 7 11 mph 1024.7mb 75f 71f
10:50am 2ft 6s 5s 7 9 mph 1024mb 75f 71f